Terminal Aerodrome Forecast
Issued by NWS Wilmington, NC

Home | Current Version | Previous Version | Text Only | Print | Product List | Glossary On
Versions: 1 2 3 4 5 6 7 8 9 10 11 12 13 14 15 16 17 18 19 20
787
FTUS42 KILM 240539
TAFILM
TAF
KILM 240539Z 2406/2506 21007KT 5SM -SHRA BR FEW010 BKN030
      TEMPO 2406/2409 P6SM -TSRA SCT008 BKN025CB
     FM240900 22005KT 5SM BR SCT010 BKN060
      TEMPO 2409/2412 2SM -SHRA BR
     FM241300 22010KT P6SM BKN080
     FM241600 22010KT P6SM SCT100
     FM242300 23006KT P6SM SKC=

USA.gov is the U.S. government's official web portal to all federal, state and local government web resources and services.